Time;durP1;ratioP1;P1;durP2;ratioP2;P2;SDS_P1;SDS_P2;PMS_P1;PMS_P2;Temp;Humidity;BMP_temperature;BMP_pressure;BME280_temperature;BME280_humidity;BME280_pressure;Samples;Min_cycle;Max_cycle;Signal;HPM_P1;HPM_P2
2024/01/17 00:01:04;;;;;;;41.03;37.03;;;;;;;-0.93;74.11;94837.06;5137899;27;20203;-69
2024/01/17 00:03:31;;;;;;;39.40;35.40;;;;;;;-0.92;74.17;94838.69;5138846;27;20203;-69
2024/01/17 00:06:00;;;;;;;38.17;34.42;;;;;;;-0.91;74.24;94837.56;5137732;27;20272;-69
2024/01/17 00:11:11;;;;;;;33.58;30.27;;;;;;;-0.83;74.17;94852.41;5138040;27;20218;-70
2024/01/17 00:13:38;;;;;;;38.83;34.92;;;;;;;-0.82;73.84;94848.59;5138703;27;20327;-70
2024/01/17 00:16:06;;;;;;;39.22;35.33;;;;;;;-0.84;73.95;94853.50;5138021;27;20199;-69
2024/01/17 00:18:33;;;;;;;42.35;38.20;;;;;;;-0.80;73.64;94851.81;5137927;27;20207;-69
2024/01/17 00:21:03;;;;;;;41.58;37.35;;;;;;;-0.79;73.58;94853.47;5137961;27;20203;-69
2024/01/17 00:23:30;;;;;;;41.53;37.35;;;;;;;-0.76;73.46;94850.19;5137263;27;20619;-69
2024/01/17 00:25:57;;;;;;;40.70;36.58;;;;;;;-0.76;73.76;94850.97;5137558;27;20198;-69
2024/01/17 00:28:24;;;;;;;39.38;35.50;;;;;;;-0.72;73.76;94862.06;5136916;27;20226;-69
2024/01/17 00:30:51;;;;;;;38.38;34.50;;;;;;;-0.69;73.90;94860.66;5137593;27;20202;-69
2024/01/17 00:33:18;;;;;;;37.10;33.50;;;;;;;-0.67;74.08;94862.00;5137084;27;20195;-69
2024/01/17 00:35:45;;;;;;;37.28;33.42;;;;;;;-0.70;73.70;94854.44;5137022;27;20634;-69
2024/01/17 00:38:13;;;;;;;37.30;33.60;;;;;;;-0.69;73.92;94855.22;5137051;27;20195;-69
2024/01/17 00:40:40;;;;;;;37.03;33.50;;;;;;;-0.67;74.03;94856.56;5137457;27;20195;-69
2024/01/17 00:43:08;;;;;;;37.40;33.63;;;;;;;-0.64;73.98;94857.91;5137576;27;20194;-69
2024/01/17 00:45:35;;;;;;;36.65;32.85;;;;;;;-0.65;73.86;94853.59;5137417;27;20203;-69
2024/01/17 00:48:03;;;;;;;36.08;32.60;;;;;;;-0.65;73.60;94851.69;5137093;27;20540;-69
2024/01/17 00:50:30;;;;;;;36.33;32.72;;;;;;;-0.64;74.28;94844.38;5137005;27;20197;-69
2024/01/17 00:52:57;;;;;;;37.63;33.88;;;;;;;-0.69;73.73;94847.09;5137519;27;20252;-70
2024/01/17 00:55:25;;;;;;;38.00;34.35;;;;;;;-0.76;73.89;94845.56;5137302;27;20195;-69
2024/01/17 00:57:52;;;;;;;37.58;33.97;;;;;;;-0.82;73.96;94845.91;5136857;27;20199;-70
2024/01/17 01:00:19;;;;;;;37.60;33.90;;;;;;;-0.86;74.28;94836.75;5137192;27;20199;-70
2024/01/17 01:02:46;;;;;;;36.63;32.95;;;;;;;-0.90;73.99;94833.00;5137387;27;20641;-70
2024/01/17 01:05:14;;;;;;;36.80;33.20;;;;;;;-0.94;73.93;94832.75;5136491;27;20195;-70
2024/01/17 01:07:41;;;;;;;36.10;32.53;;;;;;;-0.91;74.50;94834.88;5136446;27;20196;-69
2024/01/17 01:10:08;;;;;;;36.03;32.42;;;;;;;-0.95;74.12;94823.00;5136918;27;20180;-69
2024/01/17 01:12:38;;;;;;;36.20;32.85;;;;;;;-0.99;74.42;94824.66;5136900;27;20207;-69
2024/01/17 01:15:06;;;;;;;34.65;31.27;;;;;;;-1.03;74.45;94826.34;5136360;27;20236;-70
2024/01/17 01:17:33;;;;;;;35.03;31.63;;;;;;;-1.03;74.81;94829.03;5136449;27;20226;-70
2024/01/17 01:20:00;;;;;;;34.47;31.17;;;;;;;-0.95;75.15;94822.19;5136326;27;20602;-70
2024/01/17 01:22:27;;;;;;;34.67;31.23;;;;;;;-0.91;75.12;94824.03;5137086;27;20194;-70
2024/01/17 01:24:54;;;;;;;33.67;30.50;;;;;;;-0.87;75.15;94816.97;5136667;27;20251;-70
2024/01/17 01:27:21;;;;;;;33.80;30.60;;;;;;;-0.85;75.05;94819.38;5137145;27;20231;-70
2024/01/17 01:29:50;;;;;;;33.17;30.05;;;;;;;-0.82;74.62;94827.75;5136634;27;20247;-70
2024/01/17 01:32:17;;;;;;;32.90;29.63;;;;;;;-0.78;74.56;94830.69;5136798;27;20264;-70
2024/01/17 01:34:43;;;;;;;32.72;29.73;;;;;;;-0.75;74.73;94840.94;5136464;27;20236;-70
2024/01/17 01:37:11;;;;;;;33.83;30.63;;;;;;;-0.73;74.68;94842.28;5136773;27;20186;-70
2024/01/17 01:39:38;;;;;;;32.53;29.60;;;;;;;-0.72;74.59;94845.81;5136730;27;20191;-70
2024/01/17 01:42:05;;;;;;;30.20;27.30;;;;;;;-0.75;73.67;94844.47;5135818;27;20187;-70
2024/01/17 01:44:32;;;;;;;29.10;26.40;;;;;;;-0.76;73.60;94850.19;5135837;27;20240;-69
2024/01/17 01:47:00;;;;;;;28.52;25.77;;;;;;;-0.80;73.31;94846.41;5136386;27;20199;-69
2024/01/17 01:49:27;;;;;;;26.50;24.10;;;;;;;-0.79;73.59;94848.03;5135928;27;20207;-69
2024/01/17 01:51:54;;;;;;;26.42;23.98;;;;;;;-0.78;73.60;94845.03;5135867;27;20271;-69
2024/01/17 01:54:23;;;;;;;25.33;22.92;;;;;;;-0.75;73.62;94851.78;5135589;27;20199;-69
2024/01/17 01:56:50;;;;;;;25.25;22.95;;;;;;;-0.72;73.72;94851.22;5136735;27;20191;-69
2024/01/17 01:59:16;;;;;;;25.95;23.45;;;;;;;-0.68;73.31;94837.91;5135161;27;20202;-69
2024/01/17 02:01:44;;;;;;;25.33;22.92;;;;;;;-0.66;73.95;94836.50;5135722;27;20251;-69
2024/01/17 02:04:13;;;;;;;27.08;24.58;;;;;;;-0.76;73.30;94834.75;5136355;27;20277;-70
2024/01/17 02:06:40;;;;;;;29.42;26.73;;;;;;;-0.85;73.36;94830.22;5135405;27;20244;-70
2024/01/17 02:09:08;;;;;;;27.17;24.80;;;;;;;-0.91;73.77;94824.03;5136274;27;20190;-70
2024/01/17 02:11:37;;;;;;;28.52;25.83;;;;;;;-0.98;73.99;94827.09;5136489;27;20222;-70
2024/01/17 02:14:05;;;;;;;28.40;25.63;;;;;;;-1.02;73.99;94815.25;5135392;27;20614;-70
2024/01/17 02:16:33;;;;;;;27.70;25.08;;;;;;;-1.12;73.92;94819.94;5136188;27;20195;-70
2024/01/17 02:19:00;;;;;;;27.27;24.77;;;;;;;-1.15;74.45;94818.59;5135193;27;20210;-70
2024/01/17 02:21:29;;;;;;;26.38;23.98;;;;;;;-1.13;74.34;94824.53;5135865;27;20187;-70
2024/01/17 02:24:14;;;;;;;26.80;24.33;;;;;;;-1.26;74.25;94817.91;5135781;27;20598;-69
2024/01/17 02:26:41;;;;;;;27.10;24.60;;;;;;;-1.34;74.23;94810.41;5135051;27;20246;-69
2024/01/17 02:29:08;;;;;;;28.10;25.48;;;;;;;-1.32;74.70;94810.91;5135164;27;20199;-69
2024/01/17 02:31:36;;;;;;;27.85;25.27;;;;;;;-1.27;74.62;94812.75;5134964;28;20195;-70
2024/01/17 02:34:04;;;;;;;28.60;26.00;;;;;;;-1.23;74.58;94811.91;5135290;28;20194;-70
2024/01/17 02:36:30;;;;;;;29.42;26.52;;;;;;;-1.23;74.24;94803.81;5135553;28;20206;-70
2024/01/17 02:38:58;;;;;;;29.08;26.33;;;;;;;-1.20;74.29;94802.41;5135734;28;20198;-70
2024/01/17 02:41:25;;;;;;;28.05;25.25;;;;;;;-1.19;74.45;94804.03;5135068;28;20685;-70
2024/01/17 02:43:52;;;;;;;31.17;28.08;;;;;;;-1.16;75.04;94806.19;5134987;28;20191;-70
2024/01/17 02:46:19;;;;;;;30.65;27.77;;;;;;;-1.11;74.98;94792.59;5134931;28;20187;-70
2024/01/17 02:48:46;;;;;;;29.83;27.08;;;;;;;-1.07;74.99;94804.44;5135806;28;20195;-70
2024/01/17 02:51:13;;;;;;;31.70;28.70;;;;;;;-1.02;75.15;94804.41;5135728;28;20293;-70
2024/01/17 02:53:40;;;;;;;32.83;29.63;;;;;;;-0.98;74.96;94805.44;5135081;28;20207;-70
2024/01/17 02:56:09;;;;;;;30.02;27.13;;;;;;;-0.94;74.82;94812.97;5135142;28;20203;-69
2024/01/17 02:58:36;;;;;;;28.25;25.55;;;;;;;-0.94;74.36;94813.81;5135409;28;20243;-69
2024/01/17 03:01:03;;;;;;;29.35;26.65;;;;;;;-0.91;75.05;94812.41;5135662;28;20255;-69
2024/01/17 03:03:31;;;;;;;29.02;26.23;;;;;;;-0.91;74.75;94807.78;5134969;28;20224;-69
2024/01/17 03:05:58;;;;;;;28.30;25.67;;;;;;;-0.89;74.60;94808.31;5135646;28;20255;-70
2024/01/17 03:08:25;;;;;;;30.85;27.95;;;;;;;-0.85;74.60;94813.97;5135306;27;20207;-70
2024/01/17 03:10:52;;;;;;;30.05;27.25;;;;;;;-0.84;74.77;94808.25;5137410;27;20210;-69
2024/01/17 03:13:20;;;;;;;32.22;29.13;;;;;;;-0.81;75.01;94813.09;5139780;27;20211;-70
2024/01/17 03:15:47;;;;;;;30.88;28.02;;;;;;;-0.81;74.46;94813.09;5139232;27;20219;-70
2024/01/17 03:18:16;;;;;;;31.10;28.10;;;;;;;-0.86;74.45;94815.88;5139487;27;20188;-70
2024/01/17 03:20:43;;;;;;;31.42;28.48;;;;;;;-0.84;74.96;94810.16;5139685;27;20183;-70
2024/01/17 03:23:10;;;;;;;31.52;28.67;;;;;;;-0.80;74.77;94811.19;5138600;27;20251;-70
2024/01/17 03:25:37;;;;;;;31.90;28.88;;;;;;;-0.78;75.06;94814.44;5138725;27;20230;-70
2024/01/17 03:28:04;;;;;;;31.73;28.73;;;;;;;-0.76;74.46;94804.94;5138156;27;20231;-70
2024/01/17 03:30:34;;;;;;;35.85;32.60;;;;;;;-0.76;74.74;94793.31;5138559;27;20195;-70
2024/01/17 03:33:01;;;;;;;35.08;31.77;;;;;;;-0.77;74.68;94795.19;5138463;27;20219;-70
2024/01/17 03:35:28;;;;;;;32.13;29.15;;;;;;;-0.75;74.72;94794.91;5138619;27;20255;-70
2024/01/17 03:37:55;;;;;;;29.77;27.08;;;;;;;-0.70;75.08;94789.44;5139396;27;20545;-70
2024/01/17 03:40:22;;;;;;;31.08;28.05;;;;;;;-0.67;75.17;94788.84;5138473;27;20221;-70
2024/01/17 03:42:49;;;;;;;31.30;28.35;;;;;;;-0.70;75.13;94781.31;5138461;27;20243;-70
2024/01/17 03:45:16;;;;;;;31.05;28.15;;;;;;;-0.70;75.13;94804.88;5138957;27;20195;-69
2024/01/17 03:47:44;;;;;;;31.00;27.88;;;;;;;-0.71;75.38;94801.38;5138583;27;20195;-69
2024/01/17 03:50:11;;;;;;;30.52;27.48;;;;;;;-0.77;74.66;94810.63;5138856;27;20195;-69
2024/01/17 03:52:38;;;;;;;31.55;28.55;;;;;;;-0.79;74.86;94818.25;5137876;27;20222;-69
2024/01/17 03:55:05;;;;;;;31.13;28.17;;;;;;;-0.79;75.16;94824.47;5138636;27;20198;-69
2024/01/17 03:57:32;;;;;;;29.70;26.90;;;;;;;-0.76;74.93;94831.22;5138639;27;20248;-69
2024/01/17 03:59:59;;;;;;;27.70;25.17;;;;;;;-0.73;74.89;94839.59;5138566;27;20203;-69
2024/01/17 04:02:26;;;;;;;28.40;25.60;;;;;;;-0.72;74.55;94834.97;5138711;27;20346;-70
2024/01/17 04:04:55;;;;;;;26.83;24.40;;;;;;;-0.73;74.67;94834.16;5138319;27;20217;-68
2024/01/17 04:07:22;;;;;;;27.02;24.52;;;;;;;-0.75;74.71;94833.63;5138898;27;20199;-69
2024/01/17 04:09:49;;;;;;;28.35;25.75;;;;;;;-0.75;74.55;94832.81;5138339;27;20286;-69
2024/01/17 04:12:16;;;;;;;30.65;27.52;;;;;;;-0.87;74.69;94826.97;5138409;27;20219;-69
2024/01/17 04:14:43;;;;;;;28.80;26.20;;;;;;;-0.94;74.37;94823.81;5137718;27;20216;-69
2024/01/17 04:17:11;;;;;;;29.23;26.63;;;;;;;-1.08;74.28;94824.50;5138745;27;20195;-69
2024/01/17 04:19:38;;;;;;;29.55;26.75;;;;;;;-1.22;74.78;94824.34;5138484;27;20195;-69
2024/01/17 04:22:07;;;;;;;28.70;26.00;;;;;;;-1.25;74.83;94824.09;5137750;27;20248;-69
2024/01/17 04:24:34;;;;;;;29.35;26.65;;;;;;;-1.22;75.42;94832.47;5137921;27;20267;-69
2024/01/17 04:27:01;;;;;;;29.45;26.60;;;;;;;-1.21;75.12;94830.56;5135815;27;20299;-69
2024/01/17 04:29:28;;;;;;;29.55;26.80;;;;;;;-1.18;75.25;94826.50;5137555;27;20207;-69
2024/01/17 04:31:55;;;;;;;29.35;26.65;;;;;;;-1.21;75.50;94825.16;5137049;27;20252;-69
2024/01/17 04:34:22;;;;;;;29.33;26.65;;;;;;;-1.27;74.97;94829.81;5137137;27;20218;-69
2024/01/17 04:36:49;;;;;;;32.40;29.50;;;;;;;-1.34;75.09;94834.75;5137379;27;20240;-69
2024/01/17 04:39:19;;;;;;;32.47;29.58;;;;;;;-1.33;75.11;94838.25;5138228;27;20179;-68
2024/01/17 04:41:46;;;;;;;34.00;30.83;;;;;;;-1.34;75.14;94842.88;5138065;27;20229;-69
2024/01/17 04:44:13;;;;;;;34.08;30.88;;;;;;;-1.33;75.36;94838.25;5137041;27;20226;-69
2024/01/17 04:46:40;;;;;;;32.92;29.95;;;;;;;-1.35;75.72;94830.41;5137458;27;20191;-69
2024/01/17 04:49:08;;;;;;;34.50;31.30;;;;;;;-1.34;75.31;94839.34;5137466;27;20195;-68
2024/01/17 04:51:35;;;;;;;35.35;31.98;;;;;;;-1.33;75.74;94847.19;5137947;27;20195;-68
2024/01/17 04:54:02;;;;;;;35.67;32.38;;;;;;;-1.29;75.79;94855.53;5137186;27;20229;-68
2024/01/17 04:56:30;;;;;;;36.92;33.53;;;;;;;-1.24;75.66;94864.41;5138035;27;20207;-68
2024/01/17 04:58:57;;;;;;;37.42;33.80;;;;;;;-1.16;75.72;94868.44;5138247;27;20180;-69
2024/01/17 05:01:25;;;;;;;37.08;33.55;;;;;;;-1.10;75.86;94864.56;5136848;27;20202;-69
2024/01/17 05:03:51;;;;;;;37.88;34.38;;;;;;;-1.06;75.62;94873.72;5137130;27;20283;-68
2024/01/17 05:06:18;;;;;;;36.63;33.17;;;;;;;-1.00;75.96;94869.88;5137285;27;20191;-71
2024/01/17 05:08:45;;;;;;;36.40;33.03;;;;;;;-0.98;75.39;94883.97;5136286;27;20247;-72
2024/01/17 05:11:13;;;;;;;36.60;33.20;;;;;;;-0.93;75.63;94874.19;5136667;27;20553;-71
2024/01/17 05:13:42;;;;;;;42.78;38.67;;;;;;;-0.91;75.74;94867.34;5136299;27;20211;-71
2024/01/17 05:16:09;;;;;;;43.22;39.25;;;;;;;-0.91;75.49;94850.31;5136947;27;20203;-71
2024/01/17 05:18:36;;;;;;;35.00;31.77;;;;;;;-0.95;75.65;94841.94;5137097;27;20484;-71
2024/01/17 05:21:03;;;;;;;37.97;34.58;;;;;;;-0.92;75.84;94854.91;5136548;27;20202;-71
2024/01/17 05:23:30;;;;;;;34.90;31.70;;;;;;;-0.86;75.91;94859.22;5136735;27;20195;-71
2024/01/17 05:25:57;;;;;;;34.40;31.30;;;;;;;-0.78;75.97;94872.13;5136371;27;20212;-71
2024/01/17 05:28:24;;;;;;;32.75;29.73;;;;;;;-0.70;76.19;94857.13;5135981;27;20241;-71
2024/01/17 05:30:52;;;;;;;33.95;30.55;;;;;;;-0.71;76.00;94850.13;5136007;27;20205;-72
2024/01/17 05:33:19;;;;;;;34.95;31.50;;;;;;;-0.73;76.14;94850.41;5135421;27;20276;-68
2024/01/17 05:35:46;;;;;;;35.42;31.70;;;;;;;-0.75;75.76;94854.50;5136033;27;20191;-69
2024/01/17 05:38:13;;;;;;;34.42;30.98;;;;;;;-0.81;75.91;94851.03;5137067;27;20183;-69
2024/01/17 05:40:40;;;;;;;37.60;33.75;;;;;;;-0.83;75.70;94853.22;5136494;27;20271;-69
2024/01/17 05:43:07;;;;;;;36.88;33.13;;;;;;;-0.81;75.83;94853.72;5136962;27;20237;-68
2024/01/17 05:45:34;;;;;;;40.95;35.83;;;;;;;-0.73;75.99;94866.66;5135913;27;20225;-69
2024/01/17 05:48:03;;;;;;;38.88;35.10;;;;;;;-0.66;75.84;94866.31;5135765;27;20272;-69
2024/01/17 05:50:30;;;;;;;37.63;34.05;;;;;;;-0.60;76.11;94861.66;5136134;27;20198;-69
2024/01/17 05:52:57;;;;;;;34.83;31.42;;;;;;;-0.53;76.24;94868.34;5135868;27;20309;-69
2024/01/17 05:55:24;;;;;;;35.53;32.13;;;;;;;-0.46;75.35;94869.91;5136145;27;20187;-69
2024/01/17 05:57:53;;;;;;;35.88;32.47;;;;;;;-0.44;75.40;94867.69;5135645;27;20198;-69
2024/01/17 06:00:20;;;;;;;36.60;33.20;;;;;;;-0.38;75.85;94863.84;5135515;27;20285;-70
2024/01/17 06:02:47;;;;;;;40.38;36.63;;;;;;;-0.37;75.28;94854.59;5136231;27;20195;-69
2024/01/17 06:05:17;;;;;;;41.08;36.97;;;;;;;-0.39;75.15;94837.84;5136404;27;20199;-69
2024/01/17 06:07:44;;;;;;;39.22;35.33;;;;;;;-0.42;75.47;94847.34;5136495;27;20191;-69
2024/01/17 06:10:13;;;;;;;37.45;34.03;;;;;;;-0.44;75.23;94854.16;5135909;27;20195;-69
2024/01/17 06:12:40;;;;;;;37.25;33.75;;;;;;;-0.42;75.18;94858.19;5135564;27;20518;-69
2024/01/17 06:15:08;;;;;;;36.63;33.22;;;;;;;-0.41;74.92;94869.84;5135919;27;20203;-69
2024/01/17 06:17:35;;;;;;;33.78;30.52;;;;;;;-0.38;75.18;94864.66;5135298;27;20263;-70
2024/01/17 06:20:02;;;;;;;29.92;27.23;;;;;;;-0.33;75.10;94861.91;5136185;27;20207;-70
2024/01/17 06:22:31;;;;;;;30.75;27.88;;;;;;;-0.28;75.06;94847.47;5135239;27;20255;-70
2024/01/17 06:24:58;;;;;;;32.33;29.17;;;;;;;-0.25;74.74;94846.88;5135235;27;20248;-70
2024/01/17 06:27:25;;;;;;;39.00;35.28;;;;;;;-0.29;74.54;94864.81;5135003;27;20245;-70
2024/01/17 06:29:52;;;;;;;35.85;32.35;;;;;;;-0.30;74.89;94874.03;5135220;27;20195;-70
2024/01/17 06:32:19;;;;;;;34.03;30.80;;;;;;;-0.31;75.09;94872.44;5135051;28;20630;-70
2024/01/17 06:34:46;;;;;;;33.95;30.85;;;;;;;-0.29;75.22;94871.06;5136175;28;20215;-70
2024/01/17 06:37:13;;;;;;;35.10;31.90;;;;;;;-0.25;75.43;94860.44;5135645;28;20191;-70
2024/01/17 06:39:42;;;;;;;33.70;30.50;;;;;;;-0.23;74.82;94871.78;5135281;28;20240;-70
2024/01/17 06:42:09;;;;;;;44.90;40.50;;;;;;;-0.25;75.01;94880.22;5134930;28;20203;-70
2024/01/17 06:44:36;;;;;;;48.78;44.08;;;;;;;-0.22;74.95;94884.22;5138307;27;20222;-70
2024/01/17 06:47:04;;;;;;;46.45;42.05;;;;;;;-0.19;75.27;94880.16;5139790;27;20195;-70
2024/01/17 06:49:30;;;;;;;41.33;37.70;;;;;;;-0.17;74.96;94878.78;5139110;27;20627;-70
2024/01/17 06:51:58;;;;;;;42.47;38.47;;;;;;;-0.11;75.10;94864.06;5140351;27;20216;-70
2024/01/17 06:54:25;;;;;;;41.05;37.25;;;;;;;-0.09;74.79;94866.47;5139665;27;20221;-70
2024/01/17 06:56:53;;;;;;;43.80;39.67;;;;;;;-0.09;75.48;94852.91;5139131;27;20199;-70
2024/01/17 06:59:20;;;;;;;45.47;41.30;;;;;;;-0.12;75.08;94862.44;5139724;27;20248;-70
2024/01/17 07:01:47;;;;;;;44.08;39.95;;;;;;;-0.10;75.47;94870.28;5139693;27;20195;-70
2024/01/17 07:04:14;;;;;;;43.30;39.17;;;;;;;-0.11;75.38;94853.22;5140214;27;20191;-70
2024/01/17 07:06:41;;;;;;;46.63;41.92;;;;;;;-0.09;75.09;94848.28;5139037;27;20579;-70
2024/01/17 07:09:10;;;;;;;50.92;46.03;;;;;;;-0.03;75.34;94847.13;5139523;27;20186;-70
2024/01/17 07:11:37;;;;;;;48.55;43.88;;;;;;;0.03;74.96;94841.63;5139120;27;20653;-70
2024/01/17 07:14:06;;;;;;;47.47;42.63;;;;;;;0.11;75.16;94841.81;5138932;27;20215;-69
2024/01/17 07:16:33;;;;;;;42.75;38.72;;;;;;;0.24;75.11;94846.47;5139592;27;20248;-69
2024/01/17 07:18:59;;;;;;;38.80;35.17;;;;;;;0.38;74.76;94856.63;5139209;27;20199;-69
2024/01/17 07:21:26;;;;;;;37.55;33.88;;;;;;;0.48;74.43;94868.13;5139905;27;20171;-69
2024/01/17 07:23:54;;;;;;;32.83;29.70;;;;;;;0.64;73.85;94874.13;5139329;27;20196;-69
2024/01/17 07:26:21;;;;;;;30.80;28.08;;;;;;;0.71;73.15;94888.13;5138365;27;20243;-69
2024/01/17 07:28:48;;;;;;;31.75;28.85;;;;;;;0.85;72.65;94887.38;5138179;27;20291;-69
2024/01/17 07:31:16;;;;;;;28.23;25.83;;;;;;;0.92;71.37;94883.19;5139254;27;20199;-69
2024/01/17 07:33:43;;;;;;;24.42;22.25;;;;;;;0.98;72.18;94878.50;5138568;27;20256;-69
2024/01/17 07:36:10;;;;;;;23.00;21.00;;;;;;;1.05;70.70;94878.09;5138582;27;20199;-69
2024/01/17 07:38:37;;;;;;;20.63;18.83;;;;;;;1.11;70.73;94890.50;5138923;27;20232;-69
2024/01/17 07:41:05;;;;;;;19.42;17.73;;;;;;;1.17;70.52;94889.31;5138526;27;20710;-69
2024/01/17 07:43:34;;;;;;;21.10;19.20;;;;;;;1.26;70.31;94884.78;5138983;27;20199;-69
2024/01/17 07:46:01;;;;;;;22.30;20.30;;;;;;;1.26;69.40;94884.78;5139009;27;20241;-69
2024/01/17 07:48:29;;;;;;;22.77;20.73;;;;;;;1.24;69.69;94872.63;5138863;27;20251;-69
2024/01/17 07:50:57;;;;;;;21.58;19.65;;;;;;;1.25;70.16;94875.03;5138568;27;20199;-69
2024/01/17 07:53:26;;;;;;;21.88;19.90;;;;;;;1.27;70.37;94859.25;5137977;27;20658;-69
2024/01/17 07:55:55;;;;;;;20.83;19.02;;;;;;;1.28;70.13;94855.41;5138273;27;20201;-69
2024/01/17 07:58:22;;;;;;;18.90;17.30;;;;;;;1.27;69.23;94861.97;5138744;27;20198;-70
2024/01/17 08:00:49;;;;;;;19.30;17.63;;;;;;;1.29;69.47;94867.09;5139060;27;20183;-70
2024/01/17 08:03:16;;;;;;;19.33;17.63;;;;;;;1.32;69.38;94866.50;5138016;27;20195;-70
2024/01/17 08:05:45;;;;;;;18.83;17.17;;;;;;;1.36;69.77;94873.75;5138551;27;20266;-69
2024/01/17 08:08:12;;;;;;;19.88;18.08;;;;;;;1.37;69.20;94874.53;5138573;27;20310;-68
2024/01/17 08:10:39;;;;;;;19.77;18.08;;;;;;;1.38;68.97;94876.16;5137633;27;20187;-70
2024/01/17 08:13:06;;;;;;;20.38;18.67;;;;;;;1.41;68.96;94872.84;5138130;27;20563;-70
2024/01/17 08:15:33;;;;;;;22.30;20.30;;;;;;;1.42;68.82;94871.75;5137980;27;20211;-70
2024/01/17 08:18:00;;;;;;;26.90;24.38;;;;;;;1.44;68.05;94875.75;5138679;27;20213;-70
2024/01/17 08:20:27;;;;;;;26.33;23.92;;;;;;;1.48;68.21;94886.03;5138032;27;20195;-69
2024/01/17 08:22:55;;;;;;;24.73;22.52;;;;;;;1.52;68.18;94904.16;5138349;27;20198;-70
2024/01/17 08:25:25;;;;;;;23.75;21.55;;;;;;;1.51;68.71;94886.25;5136797;27;20252;-70
2024/01/17 08:27:51;;;;;;;22.83;20.88;;;;;;;1.54;68.34;94860.38;5137412;27;20646;-70
2024/01/17 08:30:19;;;;;;;24.33;22.13;;;;;;;1.57;68.55;94865.22;5137921;27;20195;-70
2024/01/17 08:32:45;;;;;;;23.63;21.42;;;;;;;1.61;68.45;94861.59;5138205;27;20183;-70
2024/01/17 08:35:13;;;;;;;23.20;21.00;;;;;;;1.63;67.89;94877.59;5137326;27;20211;-70
2024/01/17 08:37:41;;;;;;;26.05;23.75;;;;;;;1.66;68.27;94896.84;5137293;27;20207;-70
2024/01/17 08:40:10;;;;;;;27.83;25.33;;;;;;;1.71;68.59;94911.44;5136774;27;20199;-70
2024/01/17 08:42:38;;;;;;;28.75;26.08;;;;;;;1.71;68.81;94900.56;5137834;27;20286;-70
2024/01/17 08:45:06;;;;;;;28.83;26.20;;;;;;;1.73;68.23;94899.16;5137063;27;20194;-70
2024/01/17 08:47:33;;;;;;;30.00;27.25;;;;;;;1.72;68.66;94885.88;5137567;27;20520;-70
2024/01/17 08:50:01;;;;;;;29.98;27.23;;;;;;;1.67;68.44;94876.72;5137211;27;20207;-70
2024/01/17 08:52:28;;;;;;;27.63;25.13;;;;;;;1.71;69.19;94889.69;5137054;27;20282;-70
2024/01/17 08:54:56;;;;;;;27.13;24.63;;;;;;;1.77;69.65;94894.72;5136833;27;20217;-69
2024/01/17 08:57:24;;;;;;;26.27;23.77;;;;;;;1.85;70.07;94895.94;5137535;27;20560;-69
2024/01/17 08:59:51;;;;;;;25.95;23.65;;;;;;;1.87;69.26;94897.25;5136785;27;20244;-70
2024/01/17 09:02:18;;;;;;;25.48;23.13;;;;;;;1.85;69.96;94896.78;5137029;27;20240;-70
2024/01/17 09:04:45;;;;;;;25.08;22.50;;;;;;;1.81;69.09;94894.94;5137192;27;20191;-70
2024/01/17 09:07:12;;;;;;;23.67;21.55;;;;;;;1.80;69.47;94883.25;5135616;27;20198;-70
2024/01/17 09:09:39;;;;;;;22.73;20.65;;;;;;;1.80;69.18;94866.13;5137043;27;20191;-70
2024/01/17 09:12:06;;;;;;;22.33;19.08;;;;;;;1.79;69.20;94857.16;5137155;27;20211;-70
2024/01/17 09:14:35;;;;;;;22.85;18.17;;;;;;;1.78;68.55;94843.84;5136972;27;20202;-70
2024/01/17 09:17:03;;;;;;;18.73;17.02;;;;;;;1.76;67.61;94851.53;5136335;27;20220;-70
2024/01/17 09:19:30;;;;;;;23.80;20.58;;;;;;;1.80;69.10;94847.09;5136300;27;20627;-70
2024/01/17 09:21:57;;;;;;;22.08;19.88;;;;;;;1.83;68.93;94865.53;5136479;27;20588;-69
2024/01/17 09:24:24;;;;;;;20.80;18.98;;;;;;;1.89;69.21;94851.53;5136499;27;20223;-69
2024/01/17 09:26:51;;;;;;;23.35;21.27;;;;;;;1.93;69.25;94836.22;5136008;27;20631;-70
2024/01/17 09:29:18;;;;;;;25.75;23.20;;;;;;;1.98;68.73;94843.47;5137026;27;20285;-70
2024/01/17 09:31:47;;;;;;;40.95;25.60;;;;;;;1.99;69.00;94812.41;5136763;27;20199;-70
2024/01/17 09:34:14;;;;;;;52.85;37.80;;;;;;;1.97;68.94;94849.22;5136471;27;20231;-70
2024/01/17 09:36:41;;;;;;;30.25;27.25;;;;;;;1.99;68.81;94847.78;5136748;27;20251;-70
2024/01/17 09:39:08;;;;;;;24.10;21.92;;;;;;;2.04;67.90;94850.41;5136481;27;20199;-70
2024/01/17 09:41:35;;;;;;;23.05;20.92;;;;;;;2.09;68.75;94835.88;5135950;27;20202;-70
2024/01/17 09:44:02;;;;;;;24.83;22.63;;;;;;;2.13;68.19;94831.44;5136046;27;20549;-70
2024/01/17 09:46:31;;;;;;;57.35;31.08;;;;;;;2.15;68.47;94815.63;5136673;27;20199;-70
2024/01/17 09:48:59;;;;;;;30.05;27.08;;;;;;;2.22;67.96;94818.75;5136647;27;20206;-70
2024/01/17 09:51:26;;;;;;;29.70;26.70;;;;;;;2.30;67.95;94817.19;5136204;27;20232;-70
2024/01/17 09:53:55;;;;;;;28.02;25.30;;;;;;;2.34;67.80;94819.00;5136102;27;20195;-70
2024/01/17 09:56:25;;;;;;;26.77;24.08;;;;;;;2.35;67.74;94812.44;5136739;27;20195;-70
2024/01/17 09:58:54;;;;;;;24.23;22.02;;;;;;;2.38;67.23;94809.09;5136387;27;20210;-70
2024/01/17 10:01:23;;;;;;;25.60;23.40;;;;;;;2.37;66.93;94801.25;5136186;27;20209;-70
2024/01/17 10:03:52;;;;;;;23.73;21.63;;;;;;;2.42;66.91;94795.69;5135579;27;20195;-70
2024/01/17 10:06:21;;;;;;;25.33;22.95;;;;;;;2.47;66.66;94794.75;5136483;27;20186;-70
2024/01/17 10:08:48;;;;;;;23.70;21.58;;;;;;;2.48;66.31;94799.91;5136020;27;20199;-70
2024/01/17 10:11:15;;;;;;;25.33;22.95;;;;;;;2.55;66.70;94794.84;5136190;27;20240;-70
2024/01/17 10:13:42;;;;;;;25.02;22.83;;;;;;;2.64;67.31;94803.84;5135731;27;20220;-70
2024/01/17 10:16:09;;;;;;;21.92;20.02;;;;;;;2.73;66.86;94803.94;5135870;27;20506;-70
2024/01/17 10:18:36;;;;;;;22.65;20.55;;;;;;;2.80;66.48;94789.88;5134975;27;20293;-70
2024/01/17 10:21:04;;;;;;;23.23;21.25;;;;;;;2.85;66.76;94782.38;5135563;27;20187;-70
2024/01/17 10:23:32;;;;;;;24.08;21.92;;;;;;;2.97;66.63;94786.44;5135850;27;20278;-70
2024/01/17 10:25:59;;;;;;;23.48;21.48;;;;;;;3.10;66.04;94786.38;5136250;27;20198;-70
2024/01/17 10:28:26;;;;;;;23.50;21.30;;;;;;;3.20;65.67;94776.34;5135250;27;20263;-70
2024/01/17 10:30:55;;;;;;;24.55;22.00;;;;;;;3.31;65.58;94775.75;5135306;27;20262;-70
2024/01/17 10:33:22;;;;;;;23.23;21.17;;;;;;;3.39;65.27;94757.81;5135946;27;20199;-70
2024/01/17 10:35:50;;;;;;;23.48;21.48;;;;;;;3.51;65.29;94765.38;5135685;28;20210;-70
2024/01/17 10:38:17;;;;;;;23.50;21.30;;;;;;;3.71;65.30;94762.09;5135544;28;20194;-70
2024/01/17 10:40:44;;;;;;;23.73;21.52;;;;;;;3.86;64.66;94748.00;5135243;28;20187;-70
2024/01/17 10:43:13;;;;;;;24.45;22.13;;;;;;;4.11;64.46;94745.63;5135245;28;20681;-70
2024/01/17 10:45:42;;;;;;;23.23;21.10;;;;;;;4.31;63.26;94734.06;5135626;28;20267;-70
2024/01/17 10:48:09;;;;;;;24.02;21.83;;;;;;;4.48;63.83;94721.56;5135276;28;20236;-70
2024/01/17 10:50:36;;;;;;;22.45;20.45;;;;;;;4.62;63.10;94718.66;5135910;28;20225;-70
2024/01/17 10:53:05;;;;;;;23.08;21.08;;;;;;;4.66;63.02;94716.88;5135322;28;20236;-70
2024/01/17 10:55:35;;;;;;;24.27;22.08;;;;;;;4.73;62.71;94728.09;5135712;28;20230;-70
2024/01/17 10:58:09;;;;;;;22.75;20.73;;;;;;;4.81;61.91;94716.34;5136080;28;20233;-70
2024/01/17 11:00:39;;;;;;;23.55;21.48;;;;;;;4.86;61.68;94707.19;5135806;28;20217;-70
2024/01/17 11:03:09;;;;;;;24.92;22.67;;;;;;;4.92;61.52;94698.47;5135037;28;20191;-70
2024/01/17 11:05:45;;;;;;;24.02;21.80;;;;;;;4.95;61.21;94686.09;5135053;28;20206;-70
2024/01/17 11:08:14;;;;;;;25.85;23.52;;;;;;;5.05;60.81;94677.56;5135238;28;20628;-70
2024/01/17 11:10:43;;;;;;;27.85;25.13;;;;;;;5.11;60.64;94684.44;5134971;28;20195;-70
2024/01/17 11:13:13;;;;;;;26.63;24.15;;;;;;;5.25;60.10;94686.94;5136164;28;20205;-70
2024/01/17 11:15:41;;;;;;;27.63;24.92;;;;;;;5.47;59.63;94685.88;5134762;28;20680;-70
2024/01/17 11:18:09;;;;;;;27.48;24.77;;;;;;;5.83;58.86;94679.06;5134790;28;20197;-70
2024/01/17 11:20:37;;;;;;;28.02;25.33;;;;;;;5.96;57.84;94680.81;5135725;28;20211;-70
2024/01/17 11:23:06;;;;;;;31.67;28.70;;;;;;;6.08;56.73;94680.88;5134865;28;20668;-70